Time;durP1;ratioP1;P1;durP2;ratioP2;P2;SDS_P1;SDS_P2;PMS_P1;PMS_P2;Temp;Humidity;BMP_temperature;BMP_pressure;BME280_temperature;BME280_humidity;BME280_pressure;Samples;Min_cycle;Max_cycle;Signal;HPM_P1;HPM_P2
2022/11/03 00:01:56;;;;;;;12.75;9.07;;;;;;;6.39;100.00;96234.69;5070437;28;20035;-67
2022/11/03 00:04:22;;;;;;;12.40;8.38;;;;;;;6.35;100.00;96232.41;5069449;28;20519;-67
2022/11/03 00:06:50;;;;;;;11.73;7.90;;;;;;;6.30;100.00;96233.56;5070524;28;20037;-67
2022/11/03 00:09:17;;;;;;;7.53;6.63;;;;;;;6.28;100.00;96230.19;5070976;28;20482;-66
2022/11/03 00:11:44;;;;;;;6.00;5.47;;;;;;;6.27;100.00;96228.50;5065407;28;21254;-66
2022/11/03 00:14:11;;;;;;;6.82;6.22;;;;;;;6.29;100.00;96229.25;5067314;28;20115;-66
2022/11/03 00:16:38;;;;;;;9.25;6.97;;;;;;;6.27;100.00;96223.28;5070710;28;20399;-60
2022/11/03 00:19:04;;;;;;;7.15;6.00;;;;;;;6.28;100.00;96226.75;5069378;28;20078;-73
2022/11/03 00:21:29;;;;;;;6.80;5.53;;;;;;;6.22;100.00;96227.16;5070118;28;20068;-63
2022/11/03 00:23:54;;;;;;;15.35;6.38;;;;;;;6.21;100.00;96228.91;5050547;28;20037;-63
2022/11/03 00:26:22;;;;;;;8.40;7.60;;;;;;;6.19;100.00;96230.81;5068935;28;20064;-63
2022/11/03 00:28:50;;;;;;;5.47;4.93;;;;;;;6.13;100.00;96218.97;5069455;28;20037;-62
2022/11/03 00:31:18;;;;;;;6.32;5.57;;;;;;;6.11;100.00;96222.63;5070125;28;20028;-63
2022/11/03 00:33:44;;;;;;;7.55;5.38;;;;;;;6.10;100.00;96226.19;5070012;28;20032;-62
2022/11/03 00:36:16;;;;;;;7.68;5.13;;;;;;;6.10;100.00;96224.41;5066172;28;20035;-74
2022/11/03 00:38:42;;;;;;;6.63;5.90;;;;;;;6.07;100.00;96218.53;5066971;28;20029;-66
2022/11/03 00:41:09;;;;;;;5.90;5.18;;;;;;;6.06;100.00;96219.47;5052730;28;20024;-67
2022/11/03 00:43:35;;;;;;;6.10;5.18;;;;;;;6.02;100.00;96222.28;5070690;28;20108;-67
2022/11/03 00:46:01;;;;;;;6.95;5.05;;;;;;;5.99;100.00;96217.22;5071229;28;20086;-67
2022/11/03 00:48:29;;;;;;;5.70;4.65;;;;;;;6.02;100.00;96211.00;5069953;28;20032;-67
2022/11/03 00:51:18;;;;;;;5.55;4.72;;;;;;;6.08;100.00;96210.59;5070643;28;20245;-67
2022/11/03 00:53:49;;;;;;;6.72;5.03;;;;;;;6.05;100.00;96200.34;5069276;28;20052;-67
2022/11/03 00:56:22;;;;;;;5.40;4.50;;;;;;;6.03;100.00;96199.63;5070541;28;21024;-60
2022/11/03 00:58:49;;;;;;;5.63;5.13;;;;;;;6.00;100.00;96192.78;5070623;28;20043;-67
2022/11/03 01:01:21;;;;;;;6.30;4.88;;;;;;;5.99;100.00;96188.47;5069773;28;20509;-67
2022/11/03 01:06:50;;;;;;;6.15;4.68;;;;;;;5.99;100.00;96179.81;5066816;28;20505;-67
2022/11/03 01:09:19;;;;;;;5.50;5.00;;;;;;;5.97;100.00;96173.84;5070086;28;20494;-67
2022/11/03 01:12:02;;;;;;;6.85;4.95;;;;;;;5.94;100.00;96180.13;5069716;28;20045;-67
2022/11/03 01:14:32;;;;;;;6.18;4.90;;;;;;;5.89;100.00;96174.34;5069769;28;20399;-60
2022/11/03 01:16:57;;;;;;;5.55;5.05;;;;;;;5.87;100.00;96174.44;5070521;28;20037;-66
2022/11/03 01:19:24;;;;;;;8.25;5.22;;;;;;;5.85;100.00;96173.72;5069398;28;21249;-73
2022/11/03 01:21:50;;;;;;;7.43;5.30;;;;;;;5.83;100.00;96170.38;5070357;28;20040;-73
2022/11/03 01:24:16;;;;;;;5.72;5.20;;;;;;;5.88;100.00;96167.47;5069610;28;20490;-73
2022/11/03 01:26:41;;;;;;;5.60;5.10;;;;;;;5.88;100.00;96163.06;5069371;28;20051;-73
2022/11/03 01:29:07;;;;;;;9.60;5.32;;;;;;;5.85;100.00;96165.88;5069066;28;20028;-73
2022/11/03 01:31:32;;;;;;;8.90;5.13;;;;;;;5.84;100.00;96156.38;5069739;28;20495;-73
2022/11/03 01:33:58;;;;;;;5.65;4.55;;;;;;;5.82;100.00;96152.16;5069532;28;20028;-59
2022/11/03 01:36:23;;;;;;;7.72;5.07;;;;;;;5.76;100.00;96145.59;5070126;28;20497;-62
2022/11/03 01:38:49;;;;;;;5.47;4.95;;;;;;;5.78;100.00;96153.31;5069729;28;20490;-62
2022/11/03 01:41:22;;;;;;;5.18;4.68;;;;;;;5.82;100.00;96154.78;5069153;28;20028;-62
2022/11/03 01:44:23;;;;;;;4.72;4.32;;;;;;;5.80;100.00;96154.03;5068257;28;20482;-62
2022/11/03 01:47:11;;;;;;;6.95;5.00;;;;;;;5.80;100.00;96148.81;5067146;28;20032;-62
2022/11/03 01:49:57;;;;;;;5.10;4.70;;;;;;;5.72;100.00;96158.00;5069454;28;20045;-62
2022/11/03 01:52:43;;;;;;;4.97;4.53;;;;;;;5.74;100.00;96165.72;5067615;28;20514;-61
2022/11/03 01:55:17;;;;;;;5.28;4.60;;;;;;;5.78;100.00;96166.38;5068948;28;20103;-61
2022/11/03 01:57:56;;;;;;;5.03;4.43;;;;;;;5.78;100.00;96167.22;5069203;28;20494;-65
2022/11/03 02:00:22;;;;;;;6.65;4.53;;;;;;;5.81;100.00;96168.78;5069262;28;20032;-65
2022/11/03 02:02:48;;;;;;;5.25;4.72;;;;;;;5.74;100.00;96169.19;5076976;28;20036;-66
2022/11/03 02:05:15;;;;;;;6.63;4.60;;;;;;;5.69;100.00;96165.19;5068473;28;20025;-66
2022/11/03 02:07:57;;;;;;;8.35;4.63;;;;;;;5.67;100.00;96154.88;5069090;28;20044;-65
2022/11/03 02:10:23;;;;;;;6.05;4.93;;;;;;;5.69;100.00;96146.91;5067381;28;20032;-65
2022/11/03 02:12:49;;;;;;;5.28;4.10;;;;;;;5.68;100.00;96145.22;5069039;28;20480;-62
2022/11/03 02:15:17;;;;;;;4.80;4.35;;;;;;;5.66;100.00;96126.22;5068624;28;20108;-61
2022/11/03 02:17:46;;;;;;;5.53;5.03;;;;;;;5.65;100.00;96116.72;5067830;28;20024;-61
2022/11/03 02:20:19;;;;;;;4.63;4.30;;;;;;;5.66;100.00;96110.53;5068748;28;20033;-61
2022/11/03 02:22:50;;;;;;;5.38;4.60;;;;;;;5.64;100.00;96110.66;5067131;28;20028;-61
2022/11/03 02:25:45;;;;;;;4.60;4.25;;;;;;;5.63;100.00;96111.56;5068785;28;20519;-60
2022/11/03 02:28:14;;;;;;;5.55;4.40;;;;;;;5.63;100.00;96098.50;5069207;28;20048;-61
2022/11/03 02:30:58;;;;;;;6.90;4.63;;;;;;;5.65;100.00;96090.59;5067297;28;20413;-63
2022/11/03 02:33:35;;;;;;;4.25;3.92;;;;;;;5.59;100.00;96094.44;5069280;28;20036;-60
2022/11/03 02:36:21;;;;;;;4.63;4.22;;;;;;;5.61;100.00;96081.28;5063879;28;20050;-66
2022/11/03 02:38:58;;;;;;;4.50;4.20;;;;;;;5.62;100.00;96088.19;5068623;28;20048;-66
2022/11/03 02:41:26;;;;;;;8.20;4.53;;;;;;;5.59;100.00;96078.75;5067737;28;20040;-66
2022/11/03 02:43:55;;;;;;;5.55;5.05;;;;;;;5.70;100.00;96078.03;5068225;28;20154;-66
2022/11/03 02:46:24;;;;;;;5.03;4.57;;;;;;;5.65;100.00;96078.38;5068453;28;20043;-66
2022/11/03 02:48:50;;;;;;;5.00;4.60;;;;;;;5.59;100.00;96078.75;5067679;28;20713;-65
2022/11/03 02:51:16;;;;;;;6.75;5.30;;;;;;;5.61;100.00;96074.25;5067557;28;20490;-61
2022/11/03 02:54:22;;;;;;;5.72;4.80;;;;;;;5.60;100.00;96064.75;5068267;28;20048;-60
2022/11/03 02:57:08;;;;;;;5.40;5.00;;;;;;;5.59;100.00;96061.31;5068158;28;20634;-60
2022/11/03 02:59:43;;;;;;;6.93;5.20;;;;;;;5.57;100.00;96062.34;5068496;28;20037;-60
2022/11/03 03:02:12;;;;;;;9.77;5.53;;;;;;;5.57;100.00;96060.59;5068682;28;20032;-60
2022/11/03 03:04:47;;;;;;;5.80;5.20;;;;;;;5.62;100.00;96051.59;5068804;28;20054;-60
2022/11/03 03:07:24;;;;;;;6.10;5.57;;;;;;;5.63;100.00;96053.28;5067956;28;20107;-60
2022/11/03 03:10:13;;;;;;;6.43;5.57;;;;;;;5.61;100.00;96050.75;5068283;28;20029;-62
2022/11/03 03:12:45;;;;;;;5.30;4.80;;;;;;;5.59;100.00;96039.56;5064723;28;20119;-67
2022/11/03 03:15:11;;;;;;;6.88;4.85;;;;;;;5.70;100.00;96041.47;5067164;28;20074;-67
2022/11/03 03:18:00;;;;;;;5.57;5.13;;;;;;;5.68;100.00;96038.97;5068286;28;20078;-68
2022/11/03 03:20:33;;;;;;;10.57;5.22;;;;;;;5.64;100.00;96024.44;5061772;28;20496;-67
2022/11/03 03:23:12;;;;;;;8.40;5.25;;;;;;;5.66;100.00;96021.72;5065610;28;20040;-68
2022/11/03 03:25:45;;;;;;;7.20;4.90;;;;;;;5.69;100.00;96017.13;5068418;28;20036;-67
2022/11/03 03:28:19;;;;;;;5.22;4.40;;;;;;;5.71;100.00;96015.25;5068109;28;20035;-63
2022/11/03 03:30:47;;;;;;;5.88;5.00;;;;;;;5.74;100.00;96014.19;5068685;28;20040;-68
2022/11/03 03:33:14;;;;;;;7.65;4.90;;;;;;;5.72;100.00;96016.94;5067660;28;20032;-67
2022/11/03 03:35:43;;;;;;;6.03;4.85;;;;;;;5.73;100.00;96017.75;5068358;28;20036;-67
2022/11/03 03:38:14;;;;;;;5.40;4.88;;;;;;;5.74;100.00;96025.50;5068022;28;20108;-66
2022/11/03 03:40:43;;;;;;;4.88;4.43;;;;;;;5.75;100.00;96023.72;5049976;28;20418;-67
2022/11/03 03:43:13;;;;;;;5.03;4.63;;;;;;;5.70;100.00;96018.81;5067584;28;20029;-67
2022/11/03 03:45:41;;;;;;;9.57;5.10;;;;;;;5.67;100.00;96028.63;5067885;28;20054;-67
2022/11/03 03:48:07;;;;;;;10.82;5.28;;;;;;;5.62;100.00;96026.31;5070489;28;20047;-68
2022/11/03 03:50:36;;;;;;;4.97;4.45;;;;;;;5.63;100.00;96033.19;5067952;28;20071;-62
2022/11/03 03:53:08;;;;;;;8.13;4.43;;;;;;;5.66;100.00;96035.63;5063448;28;20466;-67
2022/11/03 03:55:37;;;;;;;6.53;4.75;;;;;;;5.64;100.00;96024.44;5067314;28;20023;-67
2022/11/03 03:58:06;;;;;;;8.15;6.93;;;;;;;5.66;100.00;96019.09;5071527;28;20037;-67
2022/11/03 04:00:32;;;;;;;5.28;4.80;;;;;;;5.63;100.00;96017.53;5072161;28;20044;-67
2022/11/03 04:02:58;;;;;;;4.25;4.05;;;;;;;5.60;100.00;96009.91;5072278;28;20044;-67
2022/11/03 04:05:25;;;;;;;6.25;4.47;;;;;;;5.62;100.00;96004.59;5071221;28;20047;-68
2022/11/03 04:07:51;;;;;;;5.80;4.50;;;;;;;5.62;100.00;96004.59;5071603;28;20028;-63
2022/11/03 04:10:19;;;;;;;4.57;4.15;;;;;;;5.66;100.00;96001.69;5068846;28;20031;-67
2022/11/03 04:23:41;;;;;;;4.40;4.10;;;;;;;5.50;100.00;95996.63;5071498;28;20038;-66
2022/11/03 04:26:12;;;;;;;5.85;5.30;;;;;;;5.47;100.00;95991.63;5071370;28;20041;-66
2022/11/03 04:28:37;;;;;;;4.88;4.45;;;;;;;5.44;100.00;95987.44;5071612;28;20043;-62
2022/11/03 04:31:09;;;;;;;5.03;4.63;;;;;;;5.43;100.00;95991.00;5070996;28;20041;-60
2022/11/03 04:33:34;;;;;;;5.43;4.93;;;;;;;5.42;100.00;95991.09;5071236;28;20165;-60
2022/11/03 04:36:00;;;;;;;5.93;4.40;;;;;;;5.40;100.00;95985.13;5070663;28;20047;-60
2022/11/03 04:38:26;;;;;;;4.55;4.13;;;;;;;5.39;100.00;95981.69;5070685;28;20048;-60
2022/11/03 04:40:56;;;;;;;5.60;4.47;;;;;;;5.40;100.00;95985.13;5070660;28;20567;-60
2022/11/03 04:43:33;;;;;;;4.80;4.30;;;;;;;5.40;100.00;95985.13;5071181;28;20036;-60
2022/11/03 04:45:58;;;;;;;6.38;5.18;;;;;;;5.37;100.00;95988.78;5070336;28;20433;-67
2022/11/03 04:48:26;;;;;;;8.48;5.57;;;;;;;5.35;100.00;95990.66;5070024;28;20118;-60
2022/11/03 04:50:53;;;;;;;5.43;4.97;;;;;;;5.34;100.00;95991.59;5070503;28;20024;-72
2022/11/03 04:53:20;;;;;;;4.50;4.13;;;;;;;5.31;100.00;95991.81;5071511;28;20494;-73
2022/11/03 04:55:50;;;;;;;4.95;4.55;;;;;;;5.28;100.00;95997.25;5071677;28;20025;-73
2022/11/03 04:58:30;;;;;;;5.28;4.88;;;;;;;5.25;100.00;95982.59;5071021;28;20036;-72
2022/11/03 05:00:58;;;;;;;8.57;4.68;;;;;;;5.26;100.00;95991.28;5065725;28;20047;-73
2022/11/03 05:03:28;;;;;;;4.80;4.40;;;;;;;5.25;100.00;95989.63;5073250;28;20052;-73
2022/11/03 05:05:54;;;;;;;5.43;4.05;;;;;;;5.22;100.00;95969.75;5070134;28;20085;-72
2022/11/03 05:08:20;;;;;;;5.93;4.45;;;;;;;5.19;100.00;95972.56;5070598;28;20021;-65
2022/11/03 05:10:47;;;;;;;6.80;4.18;;;;;;;5.19;100.00;95972.56;5070553;28;20517;-72
2022/11/03 05:13:27;;;;;;;4.68;4.38;;;;;;;5.22;100.00;95968.94;5070359;28;20044;-72
2022/11/03 05:16:05;;;;;;;4.18;3.97;;;;;;;5.20;100.00;95953.38;5070592;28;20021;-73
2022/11/03 05:18:34;;;;;;;4.20;3.95;;;;;;;5.25;100.00;95945.22;5070280;28;20071;-72
2022/11/03 05:21:06;;;;;;;5.93;4.15;;;;;;;5.24;100.00;95946.16;5070185;28;20490;-73
2022/11/03 05:23:37;;;;;;;5.80;5.03;;;;;;;5.21;100.00;95935.94;5070844;28;20130;-73
2022/11/03 05:26:04;;;;;;;7.72;4.97;;;;;;;5.23;100.00;95928.84;5070250;28;20094;-67
2022/11/03 05:28:34;;;;;;;4.68;4.28;;;;;;;5.27;100.00;95927.69;5070686;28;20064;-62
2022/11/03 05:31:00;;;;;;;4.85;4.15;;;;;;;5.30;100.00;95928.31;5070168;28;20040;-62
2022/11/03 05:33:29;;;;;;;6.18;5.57;;;;;;;5.30;100.00;95922.25;5068883;28;20036;-62
2022/11/03 05:35:58;;;;;;;7.35;4.70;;;;;;;5.41;100.00;95922.34;5058513;28;20029;-63
2022/11/03 05:38:27;;;;;;;5.03;4.60;;;;;;;5.57;100.00;95913.47;5066171;28;20593;-63
2022/11/03 05:40:53;;;;;;;6.18;5.47;;;;;;;5.53;100.00;95912.03;5073064;28;20073;-63
2022/11/03 05:43:19;;;;;;;6.72;5.78;;;;;;;5.49;100.00;95900.13;5077195;28;20028;-61
2022/11/03 05:45:46;;;;;;;5.45;5.00;;;;;;;5.39;100.00;95890.28;5075464;28;20552;-68
2022/11/03 05:48:28;;;;;;;5.95;5.45;;;;;;;5.41;100.00;95887.59;5070078;28;20075;-67
2022/11/03 05:50:58;;;;;;;5.82;5.32;;;;;;;5.40;100.00;95876.28;5077140;28;20036;-67
2022/11/03 05:53:28;;;;;;;8.13;5.72;;;;;;;5.42;100.00;95884.88;5072884;28;20041;-67
2022/11/03 05:56:01;;;;;;;7.72;5.45;;;;;;;5.43;100.00;95875.25;5070265;28;20108;-67
2022/11/03 05:58:29;;;;;;;6.43;5.82;;;;;;;5.36;100.00;95874.84;5069594;28;20055;-67
2022/11/03 06:00:56;;;;;;;5.57;5.05;;;;;;;5.35;100.00;95873.16;5069825;28;20032;-67
2022/11/03 06:03:29;;;;;;;5.25;4.75;;;;;;;5.29;100.00;95878.81;5069515;28;20036;-67
2022/11/03 06:05:56;;;;;;;5.88;5.20;;;;;;;5.29;100.00;95879.63;5069729;28;20040;-61
2022/11/03 06:08:29;;;;;;;8.52;6.78;;;;;;;5.28;100.00;95887.59;5069182;28;20036;-67
2022/11/03 06:10:57;;;;;;;10.60;9.35;;;;;;;5.28;100.00;95892.81;5069604;28;20036;-66
2022/11/03 06:13:28;;;;;;;11.18;10.10;;;;;;;5.29;100.00;95884.03;5069442;28;20135;-68
2022/11/03 06:16:00;;;;;;;8.27;7.03;;;;;;;5.24;100.00;95881.72;5069285;28;20056;-68
2022/11/03 06:18:32;;;;;;;7.95;6.78;;;;;;;5.21;100.00;95895.00;5069762;28;20036;-67
2022/11/03 06:21:04;;;;;;;6.53;5.97;;;;;;;5.16;100.00;95892.69;5051331;28;20048;-67
2022/11/03 06:23:32;;;;;;;7.53;6.03;;;;;;;5.20;100.00;95892.50;5069774;28;20174;-61
2022/11/03 06:25:58;;;;;;;7.70;6.93;;;;;;;5.28;100.00;95895.41;5069372;28;20086;-72
2022/11/03 06:28:29;;;;;;;8.35;7.50;;;;;;;5.32;100.00;95899.50;5069639;28;20059;-72
2022/11/03 06:30:55;;;;;;;9.02;7.03;;;;;;;5.31;100.00;95903.03;5069495;28;20494;-71
2022/11/03 06:33:32;;;;;;;12.38;7.57;;;;;;;5.31;100.00;95889.97;5069659;28;20509;-73
2022/11/03 06:36:02;;;;;;;8.93;7.28;;;;;;;5.34;100.00;95887.16;5069264;28;20035;-71
2022/11/03 06:38:30;;;;;;;8.48;6.88;;;;;;;5.32;100.00;95891.66;5069051;28;20032;-72
2022/11/03 06:40:57;;;;;;;10.00;7.18;;;;;;;5.39;100.00;95882.44;5069475;28;20033;-71
2022/11/03 06:43:30;;;;;;;7.90;7.10;;;;;;;5.41;100.00;95884.97;5068947;28;20028;-60
2022/11/03 06:46:04;;;;;;;12.40;8.60;;;;;;;5.44;100.00;95893.44;5057599;28;20033;-74
2022/11/03 06:48:33;;;;;;;13.18;8.00;;;;;;;5.46;100.00;95882.88;5068406;28;20045;-74
2022/11/03 06:50:59;;;;;;;8.80;7.53;;;;;;;5.47;100.00;95881.94;5068709;28;20411;-73
2022/11/03 06:53:31;;;;;;;15.93;8.65;;;;;;;5.51;100.00;95893.00;5068884;28;20032;-74
2022/11/03 06:55:58;;;;;;;8.00;7.30;;;;;;;5.57;100.00;95887.34;5069394;28;20032;-72
2022/11/03 06:58:27;;;;;;;7.63;6.82;;;;;;;5.58;100.00;95886.41;5051151;28;20041;-74
2022/11/03 07:00:57;;;;;;;10.82;6.70;;;;;;;5.64;100.00;95899.06;5068820;28;20512;-66
2022/11/03 07:03:25;;;;;;;7.45;6.20;;;;;;;5.64;100.00;95893.84;5068990;28;20482;-71
2022/11/03 07:05:55;;;;;;;9.18;7.43;;;;;;;5.73;100.00;95887.97;5069304;28;20082;-62
2022/11/03 07:08:35;;;;;;;7.80;7.00;;;;;;;5.77;100.00;95893.81;5069306;28;20024;-62
2022/11/03 07:11:29;;;;;;;9.20;7.35;;;;;;;5.82;100.00;95885.63;5068670;28;20036;-61
2022/11/03 07:13:57;;;;;;;9.55;6.43;;;;;;;5.99;100.00;95908.81;5059506;28;20063;-61
2022/11/03 07:16:22;;;;;;;7.88;6.88;;;;;;;5.99;100.00;95898.34;5068612;28;20097;-61
2022/11/03 07:18:48;;;;;;;9.75;7.63;;;;;;;6.00;100.00;95899.22;5068286;28;20032;-62
2022/11/03 07:21:29;;;;;;;7.95;7.15;;;;;;;6.16;100.00;95897.19;5068608;28;20042;-70
2022/11/03 07:23:58;;;;;;;8.85;7.85;;;;;;;6.14;100.00;95886.00;5069254;28;20119;-72
2022/11/03 07:26:25;;;;;;;8.23;7.43;;;;;;;6.18;100.00;95888.41;5069003;28;20028;-72
2022/11/03 07:28:50;;;;;;;7.65;6.97;;;;;;;6.22;100.00;95895.09;5071741;28;20032;-71
2022/11/03 07:31:21;;;;;;;8.45;7.57;;;;;;;6.26;100.00;95892.13;5066083;28;20027;-72
2022/11/03 07:33:46;;;;;;;8.77;6.47;;;;;;;6.36;100.00;95881.03;5072393;28;20032;-70
2022/11/03 07:36:20;;;;;;;6.50;5.93;;;;;;;6.33;100.00;95892.53;5072748;28;20025;-70
2022/11/03 07:38:50;;;;;;;7.45;5.85;;;;;;;6.35;100.00;95893.25;5072536;28;20054;-71
2022/11/03 07:41:25;;;;;;;9.55;8.00;;;;;;;6.36;100.00;95896.72;5072180;28;20585;-68
2022/11/03 07:43:54;;;;;;;;;;;;;;;6.51;100.00;95911.28;5073328;28;20111;-63
2022/11/03 07:46:22;;;;;;;9.75;8.18;;;;;;;6.49;100.00;95905.31;5072195;28;19909;-63
2022/11/03 07:48:58;;;;;;;13.98;8.18;;;;;;;6.43;100.00;95901.41;5072208;28;20040;-64
2022/11/03 07:51:31;;;;;;;11.50;8.20;;;;;;;6.42;100.00;95888.41;5072255;28;20108;-63
2022/11/03 07:54:01;;;;;;;12.45;7.90;;;;;;;6.46;100.00;95884.63;5066446;28;20040;-64
2022/11/03 07:56:34;;;;;;;10.15;7.90;;;;;;;6.55;100.00;95891.81;5072280;28;20063;-64
2022/11/03 07:59:10;;;;;;;8.38;7.57;;;;;;;6.66;100.00;95900.66;5071968;28;20031;-61
2022/11/03 08:01:49;;;;;;;8.77;7.47;;;;;;;6.76;100.00;95911.28;5072357;28;20032;-62
2022/11/03 08:04:26;;;;;;;14.45;8.80;;;;;;;6.81;100.00;95915.25;5072010;28;20532;-69
2022/11/03 08:06:51;;;;;;;10.40;7.40;;;;;;;6.88;100.00;95919.06;5071846;28;20035;-69
2022/11/03 08:09:17;;;;;;;11.50;7.70;;;;;;;6.97;100.00;95919.34;5071903;28;20151;-69
2022/11/03 08:11:43;;;;;;;11.07;8.25;;;;;;;7.02;100.00;95918.03;5076989;28;20024;-69
2022/11/03 08:14:09;;;;;;;9.52;8.00;;;;;;;7.10;100.00;95922.69;5079364;28;20037;-69
2022/11/03 08:16:35;;;;;;;12.82;8.02;;;;;;;7.16;100.00;95898.66;5071702;28;20036;-69
2022/11/03 08:19:00;;;;;;;15.70;10.13;;;;;;;7.22;100.00;95901.78;5071893;28;20032;-71
2022/11/03 08:21:26;;;;;;;11.68;8.77;;;;;;;7.32;100.00;95887.03;5072007;28;20025;-60
2022/11/03 08:23:51;;;;;;;24.13;10.13;;;;;;;7.48;100.00;95881.44;5071962;28;20036;-60
2022/11/03 08:26:16;;;;;;;14.65;10.35;;;;;;;7.63;100.00;95865.50;5071383;28;20031;-60
2022/11/03 08:28:42;;;;;;;11.55;7.57;;;;;;;7.72;100.00;95857.75;5071801;28;20033;-60
2022/11/03 08:31:07;;;;;;;8.68;6.60;;;;;;;7.80;100.00;95851.91;5071075;28;20025;-60
2022/11/03 08:33:34;;;;;;;5.70;5.20;;;;;;;7.82;100.00;95851.78;5071823;28;20497;-60
2022/11/03 08:36:00;;;;;;;7.45;5.55;;;;;;;7.89;100.00;95843.31;5071550;28;20024;-60
2022/11/03 08:38:26;;;;;;;14.75;9.63;;;;;;;8.00;100.00;95831.97;5071550;28;20450;-68
2022/11/03 08:40:52;;;;;;;15.70;9.90;;;;;;;8.11;100.00;95838.97;5071244;28;20108;-61
2022/11/03 08:43:17;;;;;;;11.45;9.75;;;;;;;8.17;100.00;95835.03;5077164;28;20046;-61
2022/11/03 08:45:42;;;;;;;13.68;8.82;;;;;;;8.29;100.00;95838.47;5071174;28;20033;-61
2022/11/03 08:48:08;;;;;;;11.38;7.88;;;;;;;8.40;100.00;95834.97;5071111;28;20044;-61
2022/11/03 08:50:33;;;;;;;8.52;6.53;;;;;;;8.50;100.00;95842.97;5070943;28;20051;-61
2022/11/03 08:52:59;;;;;;;7.07;6.13;;;;;;;8.58;100.00;95817.75;5071591;28;20048;-61
2022/11/03 08:55:24;;;;;;;7.95;6.25;;;;;;;8.67;100.00;95824.03;5071121;28;20024;-61
2022/11/03 08:57:49;;;;;;;8.20;6.20;;;;;;;8.81;100.00;95817.66;5071078;28;20082;-60
2022/11/03 09:00:16;;;;;;;12.63;6.75;;;;;;;8.95;100.00;95808.59;5070983;28;20498;-70
2022/11/03 09:02:42;;;;;;;6.10;5.43;;;;;;;8.99;100.00;95809.19;5071283;28;20402;-68
2022/11/03 09:05:09;;;;;;;5.78;4.95;;;;;;;9.03;100.00;95797.47;5070763;28;20398;-68
2022/11/03 09:07:34;;;;;;;6.30;5.72;;;;;;;9.11;100.00;95800.25;5071073;28;20094;-68
2022/11/03 09:09:59;;;;;;;6.53;5.20;;;;;;;9.17;100.00;95798.91;5071072;28;20032;-68
2022/11/03 09:12:25;;;;;;;6.45;4.78;;;;;;;9.23;100.00;95794.94;5070762;28;20052;-69
2022/11/03 09:14:50;;;;;;;7.43;4.95;;;;;;;9.28;100.00;95787.50;5070599;28;20028;-69
2022/11/03 09:17:16;;;;;;;7.78;6.38;;;;;;;9.37;100.00;95783.25;5070795;28;20041;-66
2022/11/03 09:19:41;;;;;;;7.45;6.68;;;;;;;9.52;100.00;95783.72;5070347;28;20102;-68
2022/11/03 09:22:06;;;;;;;6.72;5.95;;;;;;;9.56;100.00;95788.56;5070721;28;20560;-68
2022/11/03 09:24:32;;;;;;;7.55;6.15;;;;;;;9.76;100.00;95780.75;5070589;28;20032;-69
2022/11/03 09:26:57;;;;;;;8.35;4.35;;;;;;;9.90;100.00;95774.28;5070610;28;20029;-69
2022/11/03 09:29:22;;;;;;;5.40;4.15;;;;;;;9.99;100.00;95770.00;5070299;28;20024;-68
2022/11/03 09:31:48;;;;;;;4.18;3.78;;;;;;;10.04;100.00;95770.41;5070667;28;20028;-68
2022/11/03 09:34:13;;;;;;;4.38;3.03;;;;;;;10.13;100.00;95776.66;5070046;28;20033;-67
2022/11/03 09:36:39;;;;;;;3.40;3.10;;;;;;;10.29;100.00;95771.69;5070527;28;20123;-61
2022/11/03 09:39:04;;;;;;;6.63;3.00;;;;;;;10.40;100.00;95769.88;5070519;28;20044;-67
2022/11/03 09:41:31;;;;;;;5.78;3.35;;;;;;;10.52;100.00;95762.69;5070451;28;20050;-68
2022/11/03 09:43:57;;;;;;;4.65;3.97;;;;;;;10.73;100.00;95744.13;5069814;28;20153;-68
2022/11/03 09:46:23;;;;;;;4.75;4.20;;;;;;;10.87;100.00;95732.28;5070234;28;20044;-68
2022/11/03 09:48:49;;;;;;;3.95;3.58;;;;;;;10.95;100.00;95735.03;5069874;28;20028;-68
2022/11/03 09:51:20;;;;;;;7.57;3.63;;;;;;;11.03;100.00;95744.88;5051669;28;20131;-68
2022/11/03 09:53:47;;;;;;;4.20;3.90;;;;;;;11.17;100.00;95739.13;5069075;28;20054;-68
2022/11/03 09:56:12;;;;;;;4.03;3.58;;;;;;;11.28;100.00;95734.66;5070058;28;20028;-59
2022/11/03 09:58:38;;;;;;;9.45;4.90;;;;;;;11.38;100.00;95719.59;5069424;28;20059;-69
2022/11/03 10:01:04;;;;;;;4.20;3.90;;;;;;;11.37;100.00;95696.84;5070527;28;20383;-68
2022/11/03 10:03:30;;;;;;;6.93;4.88;;;;;;;11.51;100.00;95700.84;5069618;28;20041;-66
2022/11/03 10:05:56;;;;;;;5.63;4.18;;;;;;;11.64;100.00;95704.91;5069890;28;20402;-67
2022/11/03 10:08:27;;;;;;;5.82;4.38;;;;;;;11.75;100.00;95689.69;5069588;28;20418;-67
2022/11/03 10:10:54;;;;;;;6.10;4.00;;;;;;;11.84;97.01;95687.97;5069860;28;20044;-66
2022/11/03 10:13:29;;;;;;;4.40;4.05;;;;;;;11.74;97.96;95695.94;5069269;28;20036;-67
2022/11/03 10:15:59;;;;;;;4.57;3.85;;;;;;;11.70;95.89;95684.06;5069535;28;20055;-68
2022/11/03 10:18:26;;;;;;;4.38;3.80;;;;;;;11.57;95.21;95686.19;5069578;28;20039;-72
2022/11/03 10:20:52;;;;;;;5.07;4.00;;;;;;;11.42;96.70;95689.34;5069605;28;20098;-72
2022/11/03 10:23:17;;;;;;;4.38;3.97;;;;;;;11.33;99.50;95677.03;5069788;28;20036;-72
2022/11/03 10:25:44;;;;;;;7.00;3.92;;;;;;;11.27;97.58;95673.22;5069253;28;20052;-72
2022/11/03 10:28:18;;;;;;;4.30;3.97;;;;;;;11.21;99.21;95650.06;5069727;28;20103;-72
2022/11/03 10:30:58;;;;;;;4.15;3.75;;;;;;;11.29;97.11;95622.97;5069507;28;20064;-72
2022/11/03 10:33:39;;;;;;;6.68;3.30;;;;;;;11.44;96.65;95623.28;5051418;28;20055;-71
2022/11/03 10:36:16;;;;;;;4.38;3.60;;;;;;;11.68;95.74;95621.88;5069239;28;20426;-61
2022/11/03 10:38:43;;;;;;;4.93;3.75;;;;;;;11.62;95.51;95623.34;5069240;28;20035;-69
2022/11/03 10:41:12;;;;;;;4.05;3.70;;;;;;;11.48;94.90;95619.38;5058217;28;20033;-68
2022/11/03 10:43:39;;;;;;;7.40;3.97;;;;;;;11.40;96.33;95620.16;5069314;28;20101;-68
2022/11/03 10:46:25;;;;;;;5.00;4.18;;;;;;;11.24;97.94;95633.94;5069524;28;20043;-68
2022/11/03 10:49:12;;;;;;;4.10;3.80;;;;;;;11.11;98.42;95638.75;5068846;28;20040;-68
2022/11/03 10:51:38;;;;;;;4.13;3.78;;;;;;;10.96;99.13;95646.31;5069404;28;20029;-68
2022/11/03 10:54:09;;;;;;;6.95;5.25;;;;;;;10.87;100.00;95662.00;5058232;28;20087;-61
2022/11/03 10:56:34;;;;;;;7.07;4.40;;;;;;;11.28;95.70;95656.44;5069272;28;20405;-68
2022/11/03 10:59:01;;;;;;;7.72;3.92;;;;;;;10.79;100.00;95655.78;5069154;28;20107;-67
2022/11/03 11:01:26;;;;;;;6.22;4.78;;;;;;;10.64;100.00;95651.00;5068987;28;20082;-66
2022/11/03 11:03:52;;;;;;;8.50;4.60;;;;;;;10.49;100.00;95644.53;5072263;28;20028;-66
2022/11/03 11:06:25;;;;;;;10.30;5.10;;;;;;;10.37;100.00;95646.47;5072853;28;20398;-66
2022/11/03 11:08:53;;;;;;;9.00;5.65;;;;;;;10.30;100.00;95646.19;5073401;28;20387;-66
2022/11/03 11:11:21;;;;;;;5.40;4.90;;;;;;;10.25;100.00;95651.06;5072936;28;20047;-65
2022/11/03 11:14:24;;;;;;;5.30;4.70;;;;;;;10.24;100.00;95644.13;5073067;28;20127;-69
2022/11/03 11:16:57;;;;;;;7.05;4.88;;;;;;;10.22;100.00;95657.41;5061270;28;20038;-63
2022/11/03 11:19:24;;;;;;;7.40;6.70;;;;;;;10.16;100.00;95652.72;5072447;28;20055;-63
2022/11/03 11:21:52;;;;;;;10.98;7.10;;;;;;;10.14;100.00;95658.13;5072968;28;20033;-63
2022/11/03 11:24:41;;;;;;;6.78;5.25;;;;;;;10.15;100.00;95667.66;5072594;28;20040;-63
2022/11/03 11:27:31;;;;;;;8.20;4.82;;;;;;;10.12;100.00;95667.13;5061702;28;20048;-62
2022/11/03 11:30:03;;;;;;;5.07;4.57;;;;;;;10.11;100.00;95665.47;5062595;28;20524;-62
2022/11/03 11:32:38;;;;;;;9.60;5.05;;;;;;;10.04;100.00;95646.78;5072282;28;20039;-62
2022/11/03 11:35:06;;;;;;;6.05;5.50;;;;;;;10.00;100.00;95632.25;5072988;28;20119;-69
2022/11/03 11:37:34;;;;;;;11.75;5.20;;;;;;;10.01;100.00;95621.59;5072434;28;20362;-61
2022/11/03 11:39:59;;;;;;;6.55;4.53;;;;;;;10.07;100.00;95616.75;5072527;28;20036;-62
2022/11/03 11:42:25;;;;;;;5.85;4.18;;;;;;;10.08;100.00;95605.25;5072353;28;20032;-61
2022/11/03 11:45:01;;;;;;;5.20;4.70;;;;;;;10.08;100.00;95592.09;5072485;28;20041;-62
2022/11/03 11:47:39;;;;;;;4.75;4.35;;;;;;;10.13;100.00;95577.53;5071163;28;20031;-62
2022/11/03 11:50:04;;;;;;;5.05;3.90;;;;;;;10.12;100.00;95560.09;5072438;28;20024;-62
2022/11/03 11:52:31;;;;;;;4.63;3.55;;;;;;;10.04;100.00;95558.16;5072586;28;20040;-60
2022/11/03 11:54:57;;;;;;;3.60;3.33;;;;;;;10.02;100.00;95541.72;5072249;28;20037;-69
2022/11/03 11:57:23;;;;;;;5.00;4.60;;;;;;;10.06;100.00;95530.91;5071817;28;20101;-69
2022/11/03 11:59:50;;;;;;;5.10;3.95;;;;;;;10.06;100.00;95525.63;5072235;28;20093;-70